Time;durP1;ratioP1;P1;durP2;ratioP2;P2;SDS_P1;SDS_P2;PMS_P1;PMS_P2;Temp;Humidity;BMP_temperature;BMP_pressure;BME280_temperature;BME280_humidity;BME280_pressure;Samples;Min_cycle;Max_cycle;Signal;HPM_P1;HPM_P2
2021/07/03 00:01:54;;;;;;;44.90;21.75;;;;;;;;;;5009696;28;20126;-48
2021/07/03 00:04:21;;;;;;;45.47;22.30;;;;;;;;;;5011495;28;20046;-47
2021/07/03 00:06:47;;;;;;;44.80;22.73;;;;;;;;;;5011250;28;20557;-48
2021/07/03 00:09:14;;;;;;;44.38;21.95;;;;;;;;;;5017757;28;20153;-48
2021/07/03 00:11:41;;;;;;;43.60;21.35;;;;;;;;;;5021393;28;20105;-47
2021/07/03 00:14:08;;;;;;;41.35;21.30;;;;;;;;;;4997130;28;20136;-47
2021/07/03 00:16:34;;;;;;;40.92;21.83;;;;;;;;;;5018659;28;20104;-49
2021/07/03 00:19:01;;;;;;;45.63;21.67;;;;;;;;;;5012255;28;20145;-49
2021/07/03 00:21:28;;;;;;;41.90;21.45;;;;;;;;;;5020824;28;20067;-48
2021/07/03 00:23:54;;;;;;;44.22;22.45;;;;;;;;;;5009811;28;20150;-48
2021/07/03 00:26:20;;;;;;;48.92;22.17;;;;;;;;;;5003238;28;20141;-46
2021/07/03 00:28:47;;;;;;;44.75;22.30;;;;;;;;;;5007659;28;20132;-48
2021/07/03 00:31:13;;;;;;;46.50;22.55;;;;;;;;;;5008581;28;20132;-46
2021/07/03 00:33:40;;;;;;;40.80;20.23;;;;;;;;;;5023989;28;20132;-47
2021/07/03 00:36:06;;;;;;;44.30;22.15;;;;;;;;;;5003192;28;20145;-48
2021/07/03 00:38:33;;;;;;;47.42;22.20;;;;;;;;;;5004057;28;20111;-46
2021/07/03 00:40:59;;;;;;;43.25;21.77;;;;;;;;;;5017975;28;20288;-49
2021/07/03 00:43:25;;;;;;;49.22;20.58;;;;;;;;;;5023392;28;20125;-47
2021/07/03 00:45:52;;;;;;;37.78;20.60;;;;;;;;;;5014276;28;20144;-48
2021/07/03 00:48:19;;;;;;;48.22;21.23;;;;;;;;;;5011436;28;20152;-46
2021/07/03 00:50:45;;;;;;;46.33;21.63;;;;;;;;;;5015160;28;20774;-45
2021/07/03 00:53:14;;;;;;;37.60;19.38;;;;;;;;;;5011287;28;20067;-48
2021/07/03 00:55:41;;;;;;;43.05;21.70;;;;;;;;;;5014684;28;20156;-48
2021/07/03 00:58:07;;;;;;;37.90;20.20;;;;;;;;;;5007728;28;20136;-50
2021/07/03 01:00:33;;;;;;;40.80;20.35;;;;;;;;;;5015946;28;20093;-48
2021/07/03 01:03:00;;;;;;;43.70;20.13;;;;;;;;;;5016481;28;20045;-48
2021/07/03 01:05:26;;;;;;;44.83;21.05;;;;;;;;;;5019114;28;20046;-47
2021/07/03 01:07:53;;;;;;;43.38;20.58;;;;;;;;;;5013499;28;20128;-46
2021/07/03 01:10:23;;;;;;;44.58;20.50;;;;;;;;;;5013031;28;20081;-50
2021/07/03 01:12:51;;;;;;;38.13;19.92;;;;;;;;;;5013791;28;20980;-48
2021/07/03 01:15:18;;;;;;;35.60;21.02;;;;;;;;;;4998312;28;20129;-48
2021/07/03 01:17:44;;;;;;;43.25;20.52;;;;;;;;;;5014310;28;20053;-46
2021/07/03 01:20:11;;;;;;;40.60;19.67;;;;;;;;;;5009472;28;20049;-47
2021/07/03 01:22:39;;;;;;;35.78;19.08;;;;;;;;;;5022253;28;20085;-49
2021/07/03 01:25:07;;;;;;;47.80;19.55;;;;;;;;;;5016906;28;20408;-48
2021/07/03 01:27:34;;;;;;;39.92;18.25;;;;;;;;;;5012970;28;20126;-46
2021/07/03 01:30:01;;;;;;;33.80;16.75;;;;;;;;;;5003739;28;20103;-49
2021/07/03 01:32:27;;;;;;;36.97;19.00;;;;;;;;;;5008000;28;20524;-47
2021/07/03 01:34:53;;;;;;;41.92;19.35;;;;;;;;;;5010012;28;20133;-49
2021/07/03 01:37:20;;;;;;;43.40;21.63;;;;;;;;;;5014098;28;20059;-47
2021/07/03 01:39:48;;;;;;;37.13;18.50;;;;;;;;;;5024207;28;20141;-49
2021/07/03 01:42:14;;;;;;;42.67;20.00;;;;;;;;;;5010556;28;20114;-48
2021/07/03 01:44:41;;;;;;;45.65;20.15;;;;;;;;;;5023336;28;20539;-48
2021/07/03 01:47:08;;;;;;;53.92;23.17;;;;;;;;;;5012812;28;20132;-48
2021/07/03 01:49:36;;;;;;;44.75;22.02;;;;;;;;;;5013166;28;20540;-48
2021/07/03 01:52:02;;;;;;;48.42;23.35;;;;;;;;;;5012983;28;20128;-47
2021/07/03 01:54:29;;;;;;;41.40;21.50;;;;;;;;;;4999293;28;20536;-47
2021/07/03 01:56:58;;;;;;;41.58;19.98;;;;;;;;;;5007643;28;20123;-47
2021/07/03 01:59:25;;;;;;;37.70;19.33;;;;;;;;;;5002401;28;20794;-47
2021/07/03 02:01:52;;;;;;;39.35;19.40;;;;;;;;;;5016576;28;20697;-48
2021/07/03 02:04:19;;;;;;;37.35;18.95;;;;;;;;;;5017612;28;20531;-48
2021/07/03 02:06:45;;;;;;;34.65;17.88;;;;;;;;;;5022579;28;20056;-46
2021/07/03 02:09:13;;;;;;;31.58;17.70;;;;;;;;;;5021964;28;20130;-49
2021/07/03 02:11:39;;;;;;;33.58;17.23;;;;;;;;;;5013191;28;20056;-49
2021/07/03 02:14:05;;;;;;;34.50;17.90;;;;;;;;;;5009572;28;20087;-49
2021/07/03 02:16:32;;;;;;;30.80;17.75;;;;;;;;;;5012837;28;20144;-49
2021/07/03 02:18:59;;;;;;;28.98;15.77;;;;;;;;;;5022529;28;20052;-47
2021/07/03 02:21:26;;;;;;;29.13;16.58;;;;;;;;;;5010150;28;20136;-49
2021/07/03 02:23:52;;;;;;;27.70;16.13;;;;;;;;;;5018881;28;20112;-48
2021/07/03 02:26:18;;;;;;;29.48;15.40;;;;;;;;;;5013801;28;20124;-48
2021/07/03 02:28:45;;;;;;;37.95;17.65;;;;;;;;;;5009964;28;20133;-47
2021/07/03 02:31:11;;;;;;;29.70;17.05;;;;;;;;;;5010662;28;20129;-48
2021/07/03 02:33:38;;;;;;;32.17;17.38;;;;;;;;;;5010912;28;20055;-48
2021/07/03 02:36:04;;;;;;;31.27;17.00;;;;;;;;;;5016146;28;20084;-47
2021/07/03 02:38:31;;;;;;;33.78;17.40;;;;;;;;;;5016117;28;20565;-48
2021/07/03 02:40:57;;;;;;;30.08;16.65;;;;;;;;;;5011366;28;20132;-48
2021/07/03 02:43:23;;;;;;;36.75;15.80;;;;;;;;;;4990204;28;20124;-47
2021/07/03 02:45:50;;;;;;;27.83;16.70;;;;;;;;;;5009937;28;20084;-46
2021/07/03 02:48:16;;;;;;;30.90;15.63;;;;;;;;;;5022221;28;20045;-47
2021/07/03 02:50:43;;;;;;;25.05;14.88;;;;;;;;;;5013637;28;20132;-48
2021/07/03 02:53:09;;;;;;;27.33;14.50;;;;;;;;;;5021595;28;20053;-48
2021/07/03 02:55:35;;;;;;;25.20;13.55;;;;;;;;;;5012553;28;20055;-48
2021/07/03 02:58:02;;;;;;;26.02;13.35;;;;;;;;;;5004126;28;20077;-48
2021/07/03 03:00:28;;;;;;;20.48;12.40;;;;;;;;;;5016566;28;20508;-48
2021/07/03 03:02:56;;;;;;;19.85;12.27;;;;;;;;;;5019622;28;20053;-49
2021/07/03 03:05:23;;;;;;;22.40;12.70;;;;;;;;;;5008830;28;20095;-47
2021/07/03 03:07:49;;;;;;;22.20;12.80;;;;;;;;;;5009529;28;20048;-47
2021/07/03 03:10:16;;;;;;;28.30;14.90;;;;;;;;;;5005704;28;20575;-47
2021/07/03 03:12:43;;;;;;;30.23;15.65;;;;;;;;;;5002063;28;20136;-49
2021/07/03 03:15:11;;;;;;;36.58;16.80;;;;;;;;;;5009503;28;20060;-47
2021/07/03 03:17:38;;;;;;;31.60;17.05;;;;;;;;;;5007966;28;20146;-48
2021/07/03 03:20:09;;;;;;;33.42;18.15;;;;;;;;;;5011972;28;20125;-47
2021/07/03 03:22:35;;;;;;;35.70;17.65;;;;;;;;;;5006231;28;20053;-47
2021/07/03 03:25:03;;;;;;;33.28;17.80;;;;;;;;;;5007457;28;20061;-48
2021/07/03 03:27:30;;;;;;;33.85;17.35;;;;;;;;;;5009352;28;20064;-47
2021/07/03 03:29:56;;;;;;;33.80;17.88;;;;;;;;;;5014889;28;20068;-46
2021/07/03 03:32:22;;;;;;;37.05;19.98;;;;;;;;;;5009530;28;20140;-47
2021/07/03 03:34:49;;;;;;;40.03;20.15;;;;;;;;;;4998072;28;20066;-50
2021/07/03 03:37:15;;;;;;;36.83;18.77;;;;;;;;;;5010107;28;20551;-48
2021/07/03 03:39:42;;;;;;;40.10;19.73;;;;;;;;;;5013232;28;20132;-47
2021/07/03 03:42:08;;;;;;;38.55;19.23;;;;;;;;;;5006682;28;20141;-47
2021/07/03 03:44:34;;;;;;;36.63;20.35;;;;;;;;;;5016238;28;20423;-48
2021/07/03 03:47:01;;;;;;;36.58;19.60;;;;;;;;;;5021493;28;20064;-48
2021/07/03 03:49:28;;;;;;;36.45;19.17;;;;;;;;;;5014596;28;20085;-47
2021/07/03 03:51:54;;;;;;;42.28;19.67;;;;;;;;;;4994551;28;20132;-48
2021/07/03 03:54:22;;;;;;;42.97;20.30;;;;;;;;;;5012194;28;20148;-47
2021/07/03 03:57:20;;;;;;;39.80;20.20;;;;;;;;;;5006773;28;20077;-47
2021/07/03 03:59:35;;;;;;;46.38;21.83;;;;;;;;;;5009397;28;20133;-48
2021/07/03 04:02:01;;;;;;;42.85;21.08;;;;;;;;;;5000579;28;20044;-47
2021/07/03 04:04:27;;;;;;;43.13;22.15;;;;;;;;;;5009981;28;20141;-48
2021/07/03 04:06:54;;;;;;;43.60;21.75;;;;;;;;;;5007253;28;20045;-47
2021/07/03 04:09:20;;;;;;;49.83;23.92;;;;;;;;;;5010142;28;20446;-47
2021/07/03 04:11:47;;;;;;;45.90;22.85;;;;;;;;;;5012510;28;20204;-48
2021/07/03 04:14:13;;;;;;;48.85;24.38;;;;;;;;;;5011689;28;20049;-48
2021/07/03 04:16:39;;;;;;;50.25;23.67;;;;;;;;;;5008869;28;20219;-46
2021/07/03 04:19:06;;;;;;;51.85;24.48;;;;;;;;;;5008015;28;20053;-47
2021/07/03 04:21:32;;;;;;;54.42;25.40;;;;;;;;;;5009836;28;20421;-47
2021/07/03 04:23:59;;;;;;;55.60;24.95;;;;;;;;;;5014402;28;20076;-48
2021/07/03 04:26:25;;;;;;;62.60;25.58;;;;;;;;;;5013242;28;20161;-49
2021/07/03 04:28:51;;;;;;;63.45;26.15;;;;;;;;;;5016408;28;20128;-48
2021/07/03 04:31:18;;;;;;;70.25;26.15;;;;;;;;;;5011352;28;20433;-48
2021/07/03 04:33:44;;;;;;;72.32;27.25;;;;;;;;;;5002100;28;20049;-49
2021/07/03 04:36:11;;;;;;;83.10;29.67;;;;;;;;;;4996600;28;20140;-47
2021/07/03 04:38:37;;;;;;;81.93;29.27;;;;;;;;;;5015946;28;20080;-47
2021/07/03 04:41:05;;;;;;;89.07;29.17;;;;;;;;;;5008141;28;20053;-48
2021/07/03 04:43:33;;;;;;;73.55;28.10;;;;;;;;;;5022215;28;20057;-48
2021/07/03 04:45:59;;;;;;;67.93;27.37;;;;;;;;;;5015204;28;20476;-47
2021/07/03 04:48:26;;;;;;;69.53;29.83;;;;;;;;;;5006590;28;20054;-48
2021/07/03 04:50:52;;;;;;;71.18;31.10;;;;;;;;;;5019573;28;20149;-48
2021/07/03 04:53:18;;;;;;;62.33;29.80;;;;;;;;;;5010096;28;20477;-48
2021/07/03 04:55:45;;;;;;;60.00;28.13;;;;;;;;;;5018135;28;20140;-49
2021/07/03 04:58:11;;;;;;;66.38;30.75;;;;;;;;;;5018049;28;20136;-48
2021/07/03 05:00:38;;;;;;;65.93;31.90;;;;;;;;;;5021386;28;20060;-48
2021/07/03 05:03:04;;;;;;;70.15;33.00;;;;;;;;;;5016484;28;20533;-47
2021/07/03 05:05:30;;;;;;;75.70;32.67;;;;;;;;;;5007225;28;20765;-47
2021/07/03 05:07:57;;;;;;;76.50;32.50;;;;;;;;;;5012678;28;20516;-48
2021/07/03 05:10:23;;;;;;;76.78;33.47;;;;;;;;;;4998604;28;20184;-48
2021/07/03 05:12:49;;;;;;;76.75;32.97;;;;;;;;;;5003417;28;20112;-48
2021/07/03 05:15:16;;;;;;;68.97;32.15;;;;;;;;;;5000430;28;20049;-51
2021/07/03 05:17:42;;;;;;;78.68;33.28;;;;;;;;;;5020274;28;20089;-48
2021/07/03 05:20:09;;;;;;;70.47;30.67;;;;;;;;;;5003549;28;20054;-48
2021/07/03 05:22:35;;;;;;;69.32;32.33;;;;;;;;;;5022754;28;20096;-49
2021/07/03 05:25:03;;;;;;;73.85;33.22;;;;;;;;;;5019328;28;20049;-48
2021/07/03 05:27:29;;;;;;;95.53;34.25;;;;;;;;;;5005579;28;20134;-48
2021/07/03 05:29:55;;;;;;;79.25;33.42;;;;;;;;;;5017404;28;20644;-48
2021/07/03 05:32:22;;;;;;;78.07;34.38;;;;;;;;;;5013896;28;20140;-47
2021/07/03 05:34:48;;;;;;;71.20;33.08;;;;;;;;;;5010980;28;20481;-48
2021/07/03 05:37:14;;;;;;;74.03;33.80;;;;;;;;;;5014729;28;20045;-48
2021/07/03 05:39:41;;;;;;;81.60;34.28;;;;;;;;;;5023244;28;20164;-48
2021/07/03 05:42:07;;;;;;;88.75;37.78;;;;;;;;;;5011450;28;20534;-47
2021/07/03 05:44:34;;;;;;;87.65;38.17;;;;;;;;;;5014072;28;20067;-48
2021/07/03 05:47:00;;;;;;;87.50;37.25;;;;;;;;;;5019978;28;20084;-47
2021/07/03 05:49:26;;;;;;;90.07;37.42;;;;;;;;;;5013042;28;20141;-48
2021/07/03 05:51:53;;;;;;;97.43;39.72;;;;;;;;;;5013642;28;20053;-49
2021/07/03 05:54:19;;;;;;;88.70;38.80;;;;;;;;;;5011589;28;20052;-48
2021/07/03 05:56:46;;;;;;;103.75;41.15;;;;;;;;;;5016608;28;20133;-49
2021/07/03 05:59:12;;;;;;;104.00;42.15;;;;;;;;;;5021395;28;20901;-48
2021/07/03 06:01:39;;;;;;;108.55;43.65;;;;;;;;;;5018614;28;20140;-49
2021/07/03 06:04:05;;;;;;;110.85;45.45;;;;;;;;;;5021932;28;20056;-48
2021/07/03 06:06:33;;;;;;;117.60;47.03;;;;;;;;;;5015888;28;20053;-48
2021/07/03 06:08:59;;;;;;;112.85;45.83;;;;;;;;;;5018675;28;20075;-50
2021/07/03 06:11:25;;;;;;;113.28;46.17;;;;;;;;;;5011076;28;20200;-48
2021/07/03 06:13:54;;;;;;;135.02;50.13;;;;;;;;;;5019412;28;20088;-48
2021/07/03 06:16:20;;;;;;;137.57;53.83;;;;;;;;;;5015188;28;20108;-48
2021/07/03 06:18:46;;;;;;;125.32;50.55;;;;;;;;;;5004204;28;20557;-49
2021/07/03 06:21:13;;;;;;;123.78;49.17;;;;;;;;;;5015151;28;20173;-48
2021/07/03 06:23:39;;;;;;;125.15;52.88;;;;;;;;;;4999026;28;20129;-48
2021/07/03 06:26:06;;;;;;;126.53;51.83;;;;;;;;;;5016212;28;20146;-47
2021/07/03 06:28:32;;;;;;;122.35;50.92;;;;;;;;;;5013078;28;20089;-49
2021/07/03 06:30:59;;;;;;;134.15;50.92;;;;;;;;;;5021251;28;20556;-47
2021/07/03 06:33:25;;;;;;;120.50;47.42;;;;;;;;;;5013801;28;20170;-48
2021/07/03 06:35:52;;;;;;;128.18;49.42;;;;;;;;;;5015191;28;20453;-48
2021/07/03 06:38:18;;;;;;;119.85;48.28;;;;;;;;;;5011079;28;20041;-50
2021/07/03 06:40:45;;;;;;;134.20;52.50;;;;;;;;;;5007485;28;20081;-48
2021/07/03 06:43:11;;;;;;;132.90;52.95;;;;;;;;;;5012907;28;20084;-50
2021/07/03 06:45:38;;;;;;;125.25;51.90;;;;;;;;;;5004270;28;20050;-49
2021/07/03 06:48:04;;;;;;;130.77;58.38;;;;;;;;;;5019751;28;20064;-49
2021/07/03 06:50:31;;;;;;;137.55;55.30;;;;;;;;;;5007458;28;20067;-49
2021/07/03 06:52:57;;;;;;;141.38;56.22;;;;;;;;;;5011774;28;20164;-49
2021/07/03 06:55:23;;;;;;;127.43;52.10;;;;;;;;;;4999786;28;20157;-50
2021/07/03 06:57:50;;;;;;;124.93;52.53;;;;;;;;;;5005193;28;20137;-48
2021/07/03 07:00:16;;;;;;;135.10;55.95;;;;;;;;;;5005591;28;20121;-49
2021/07/03 07:02:43;;;;;;;121.07;48.15;;;;;;;;;;5011245;28;20128;-48
2021/07/03 07:05:10;;;;;;;125.80;54.20;;;;;;;;;;5010638;28;20045;-48
2021/07/03 07:07:36;;;;;;;136.82;56.53;;;;;;;;;;5010547;28;20136;-49
2021/07/03 07:10:04;;;;;;;134.23;56.30;;;;;;;;;;5013140;28;20095;-49
2021/07/03 07:12:30;;;;;;;121.50;53.03;;;;;;;;;;5004620;28;20133;-49
2021/07/03 07:14:57;;;;;;;130.75;53.88;;;;;;;;;;5009153;28;20493;-53
2021/07/03 07:17:23;;;;;;;127.68;54.45;;;;;;;;;;5009199;28;20679;-49
2021/07/03 07:19:49;;;;;;;117.00;51.95;;;;;;;;;;5002691;28;20565;-49
2021/07/03 07:22:16;;;;;;;117.10;52.05;;;;;;;;;;5017614;28;20134;-50
2021/07/03 07:24:42;;;;;;;112.93;52.70;;;;;;;;;;5013351;28;20060;-49
2021/07/03 07:27:09;;;;;;;129.98;53.63;;;;;;;;;;5013071;28;20052;-50
2021/07/03 07:29:35;;;;;;;114.25;53.50;;;;;;;;;;5003350;28;20983;-51
2021/07/03 07:32:02;;;;;;;120.72;53.42;;;;;;;;;;5001966;28;20750;-49
2021/07/03 07:34:29;;;;;;;126.15;52.25;;;;;;;;;;4998157;28;20050;-49
2021/07/03 07:36:55;;;;;;;108.45;47.47;;;;;;;;;;5018793;28;20053;-49
2021/07/03 07:39:21;;;;;;;95.50;44.88;;;;;;;;;;5021807;28;20132;-49
2021/07/03 07:41:48;;;;;;;103.40;48.03;;;;;;;;;;5015321;28;20160;-48
2021/07/03 07:44:14;;;;;;;105.93;46.88;;;;;;;;;;5020759;28;20462;-48
2021/07/03 07:46:41;;;;;;;89.85;40.22;;;;;;;;;;5002126;28;20053;-50
2021/07/03 07:49:07;;;;;;;93.55;43.65;;;;;;;;;;5017531;28;20687;-50
2021/07/03 07:51:33;;;;;;;79.90;39.63;;;;;;;;;;5015823;28;20144;-49
2021/07/03 07:54:00;;;;;;;94.45;42.67;;;;;;;;;;5010022;28;20145;-49
2021/07/03 07:56:27;;;;;;;85.22;39.50;;;;;;;;;;5023384;28;20118;-49
2021/07/03 07:58:53;;;;;;;87.07;40.75;;;;;;;;;;5009135;28;20889;-48
2021/07/03 08:01:19;;;;;;;82.05;39.25;;;;;;;;;;5013681;28;20085;-49
2021/07/03 08:03:46;;;;;;;86.45;38.67;;;;;;;;;;5015898;28;20058;-47
2021/07/03 08:06:12;;;;;;;79.80;37.72;;;;;;;;;;5011537;28;20447;-48
2021/07/03 08:08:39;;;;;;;75.75;37.25;;;;;;;;;;5011412;28;20079;-46
2021/07/03 08:11:05;;;;;;;76.68;37.10;;;;;;;;;;5017640;28;20049;-47
2021/07/03 08:13:32;;;;;;;71.50;36.28;;;;;;;;;;5012055;28;20812;-47
2021/07/03 08:15:59;;;;;;;73.60;35.50;;;;;;;;;;5023058;28;20057;-48
2021/07/03 08:18:25;;;;;;;77.93;38.30;;;;;;;;;;5018367;28;20054;-48
2021/07/03 08:20:52;;;;;;;80.25;38.53;;;;;;;;;;5007192;28;20054;-51
2021/07/03 08:23:18;;;;;;;85.55;37.97;;;;;;;;;;5017310;28;20140;-50
2021/07/03 08:25:45;;;;;;;80.95;39.65;;;;;;;;;;5000124;28;20045;-50
2021/07/03 08:28:11;;;;;;;82.40;39.88;;;;;;;;;;5023967;28;20053;-48
2021/07/03 08:30:37;;;;;;;78.03;36.33;;;;;;;;;;5000480;28;20140;-49
2021/07/03 08:33:05;;;;;;;71.45;36.70;;;;;;;;;;5020696;28;20578;-49
2021/07/03 08:35:31;;;;;;;69.32;34.90;;;;;;;;;;5012553;28;20141;-50
2021/07/03 08:37:58;;;;;;;76.18;34.75;;;;;;;;;;5015223;28;20053;-50
2021/07/03 08:40:24;;;;;;;64.07;33.45;;;;;;;;;;5019853;28;20444;-49
2021/07/03 08:42:51;;;;;;;72.20;32.40;;;;;;;;;;5016384;28;20168;-49
2021/07/03 08:45:17;;;;;;;73.55;33.85;;;;;;;;;;5017410;28;20152;-48
2021/07/03 08:47:44;;;;;;;80.15;37.03;;;;;;;;;;5008288;28;20160;-47
2021/07/03 08:50:12;;;;;;;68.10;32.83;;;;;;;;;;5013114;28;20053;-49
2021/07/03 08:52:39;;;;;;;68.43;31.88;;;;;;;;;;5010360;28;20164;-48
2021/07/03 08:55:05;;;;;;;62.30;30.83;;;;;;;;;;5007762;28;20572;-49
2021/07/03 08:57:43;;;;;;;63.33;32.90;;;;;;;;;;5023080;28;20091;-50
2021/07/03 09:00:09;;;;;;;66.45;31.92;;;;;;;;;;5007483;28;20731;-49
2021/07/03 09:02:36;;;;;;;61.90;31.23;;;;;;;;;;5010408;28;20608;-48
2021/07/03 09:05:06;;;;;;;74.32;35.20;;;;;;;;;;5014845;28;20060;-49
2021/07/03 09:07:34;;;;;;;63.80;32.22;;;;;;;;;;5017379;28;20136;-51
2021/07/03 09:10:02;;;;;;;73.85;33.38;;;;;;;;;;5015866;28;20161;-49
2021/07/03 09:12:29;;;;;;;71.13;34.00;;;;;;;;;;5022656;28;20108;-51
2021/07/03 09:14:56;;;;;;;61.67;31.65;;;;;;;;;;5000880;28;20138;-48
2021/07/03 09:17:24;;;;;;;61.33;30.27;;;;;;;;;;5020189;28;20172;-49
2021/07/03 09:19:51;;;;;;;57.97;30.65;;;;;;;;;;5015606;28;20140;-49
2021/07/03 09:22:18;;;;;;;65.38;31.70;;;;;;;;;;5012792;28;20050;-49
2021/07/03 09:24:48;;;;;;;53.15;29.58;;;;;;;;;;5018948;28;20393;-47
2021/07/03 09:27:20;;;;;;;58.40;30.48;;;;;;;;;;5003684;28;20141;-48
2021/07/03 09:29:50;;;;;;;54.42;28.73;;;;;;;;;;5020304;28;20052;-49
2021/07/03 09:32:17;;;;;;;53.47;27.20;;;;;;;;;;5009545;28;20089;-49
2021/07/03 09:34:43;;;;;;;46.45;24.90;;;;;;;;;;5011035;28;20149;-49
2021/07/03 09:37:12;;;;;;;55.17;26.77;;;;;;;;;;5009834;28;20084;-48
2021/07/03 09:39:38;;;;;;;46.13;23.15;;;;;;;;;;5023284;28;20579;-49
2021/07/03 09:42:11;;;;;;;41.70;23.35;;;;;;;;;;5021602;28;20140;-50
2021/07/03 09:44:38;;;;;;;41.85;22.92;;;;;;;;;;5010121;28;20566;-51
2021/07/03 09:47:14;;;;;;;43.97;22.40;;;;;;;;;;5011090;28;20417;-51
2021/07/03 09:49:41;;;;;;;42.72;23.08;;;;;;;;;;5002122;28;20049;-49
2021/07/03 09:52:07;;;;;;;41.13;21.55;;;;;;;;;;5022465;28;20059;-49
2021/07/03 09:54:33;;;;;;;41.00;19.67;;;;;;;;;;5017752;28;20091;-49
2021/07/03 09:57:00;;;;;;;42.30;21.83;;;;;;;;;;5013261;28;20553;-51
2021/07/03 09:59:30;;;;;;;44.05;24.98;;;;;;;;;;5003569;28;20060;-48
2021/07/03 10:01:57;;;;;;;47.60;25.63;;;;;;;;;;5004566;28;20795;-50
2021/07/03 10:04:24;;;;;;;45.40;24.63;;;;;;;;;;5005679;28;20052;-49
2021/07/03 10:06:55;;;;;;;48.88;25.55;;;;;;;;;;5002005;28;20073;-50
2021/07/03 10:09:25;;;;;;;45.30;25.48;;;;;;;;;;5022027;28;20832;-48
2021/07/03 10:11:54;;;;;;;41.05;22.80;;;;;;;;;;5014718;28;20164;-49
2021/07/03 10:14:21;;;;;;;48.65;23.95;;;;;;;;;;5019128;28;20140;-49
2021/07/03 10:16:58;;;;;;;41.50;23.73;;;;;;;;;;5010631;28;20139;-52
2021/07/03 10:19:29;;;;;;;43.88;24.73;;;;;;;;;;5008874;28;20077;-50
2021/07/03 10:22:09;;;;;;;40.88;22.45;;;;;;;;;;5019304;28;20128;-49
2021/07/03 10:24:41;;;;;;;37.83;21.95;;;;;;;;;;5017168;28;20574;-50
2021/07/03 10:27:17;;;;;;;28.05;17.70;;;;;;;;;;5017776;28;20128;-50
2021/07/03 10:29:45;;;;;;;37.45;21.25;;;;;;;;;;5005286;28;20050;-50
2021/07/03 10:32:18;;;;;;;38.78;20.25;;;;;;;;;;5006976;28;20660;-49
2021/07/03 10:34:45;;;;;;;32.00;19.52;;;;;;;;;;5014951;28;20141;-50
2021/07/03 10:37:15;;;;;;;34.72;18.90;;;;;;;;;;5020304;28;20552;-52
2021/07/03 10:39:41;;;;;;;35.00;20.10;;;;;;;;;;5015992;28;20081;-49
2021/07/03 10:42:07;;;;;;;26.20;16.38;;;;;;;;;;5019007;28;20050;-49
2021/07/03 10:44:38;;;;;;;34.80;17.45;;;;;;;;;;4997597;28;20056;-49
2021/07/03 10:47:05;;;;;;;29.05;17.65;;;;;;;;;;5009673;28;20137;-50
2021/07/03 10:49:32;;;;;;;29.15;18.10;;;;;;;;;;5021658;28;20060;-51
2021/07/03 10:52:11;;;;;;;24.40;16.50;;;;;;;;;;5006011;28;20144;-50
2021/07/03 10:54:38;;;;;;;22.83;14.52;;;;;;;;;;5016374;28;20740;-50
2021/07/03 10:57:05;;;;;;;27.23;15.80;;;;;;;;;;5003781;28;20216;-50
2021/07/03 10:59:36;;;;;;;28.50;16.87;;;;;;;;;;5016477;28;20103;-49
2021/07/03 11:02:13;;;;;;;27.38;15.13;;;;;;;;;;5014639;28;20053;-50
2021/07/03 11:04:50;;;;;;;22.65;15.70;;;;;;;;;;5020067;28;20144;-50
2021/07/03 11:07:17;;;;;;;24.80;15.32;;;;;;;;;;5006662;28;20135;-50
2021/07/03 11:09:44;;;;;;;18.92;13.52;;;;;;;;;;5017939;28;20144;-55
2021/07/03 11:12:14;;;;;;;20.65;13.13;;;;;;;;;;5014371;28;20081;-49
2021/07/03 11:14:48;;;;;;;25.38;13.65;;;;;;;;;;5012357;28;20171;-49
2021/07/03 11:17:16;;;;;;;22.25;15.38;;;;;;;;;;5022009;28;20156;-49
2021/07/03 11:19:50;;;;;;;22.70;14.45;;;;;;;;;;5015870;28;20049;-52
2021/07/03 11:22:17;;;;;;;26.02;14.50;;;;;;;;;;5020585;28;20045;-52
2021/07/03 11:24:48;;;;;;;23.58;15.32;;;;;;;;;;5015607;28;20159;-51
2021/07/03 11:27:24;;;;;;;20.80;13.90;;;;;;;;;;5012471;28;20055;-51
2021/07/03 11:29:50;;;;;;;20.17;12.88;;;;;;;;;;5019222;28;20508;-51
2021/07/03 11:32:16;;;;;;;25.75;13.52;;;;;;;;;;5020959;28;20103;-50
2021/07/03 11:34:50;;;;;;;23.48;12.98;;;;;;;;;;5023977;28;20053;-52
2021/07/03 11:37:36;;;;;;;19.17;12.93;;;;;;;;;;5018423;28;20485;-50
2021/07/03 11:40:06;;;;;;;19.00;12.85;;;;;;;;;;5016167;28;20152;-50
2021/07/03 11:42:34;;;;;;;20.48;13.55;;;;;;;;;;5010125;28;20200;-53
2021/07/03 11:45:02;;;;;;;16.63;12.02;;;;;;;;;;5023477;28;20156;-50
2021/07/03 11:47:42;;;;;;;19.83;13.07;;;;;;;;;;5012881;28;20050;-50
2021/07/03 11:50:20;;;;;;;17.35;12.45;;;;;;;;;;5022750;28;20136;-50
2021/07/03 11:52:50;;;;;;;20.75;13.05;;;;;;;;;;5018259;28;20144;-51
2021/07/03 11:55:18;;;;;;;19.98;12.95;;;;;;;;;;5010917;28;20148;-50
2021/07/03 11:57:46;;;;;;;17.98;13.13;;;;;;;;;;5001037;28;20161;-51
2021/07/03 12:00:23;;;;;;;19.23;13.10;;;;;;;;;;5023604;28;20527;-51
2021/07/03 12:02:50;;;;;;;20.58;13.00;;;;;;;;;;5023187;28;20164;-52
2021/07/03 12:05:23;;;;;;;18.23;11.68;;;;;;;;;;5007528;28;20144;-54
2021/07/03 12:08:00;;;;;;;19.10;12.68;;;;;;;;;;5021417;28;20134;-51
2021/07/03 12:10:32;;;;;;;19.90;12.40;;;;;;;;;;4999848;28;20835;-51
2021/07/03 12:12:58;;;;;;;16.27;11.45;;;;;;;;;;5013967;28;20141;-49
2021/07/03 12:15:26;;;;;;;17.08;11.80;;;;;;;;;;5019724;28;20797;-50
2021/07/03 12:17:52;;;;;;;17.80;11.18;;;;;;;;;;5024372;28;20166;-52
2021/07/03 12:20:19;;;;;;;17.13;11.73;;;;;;;;;;5013370;28;20042;-49
2021/07/03 12:22:57;;;;;;;16.45;11.38;;;;;;;;;;5009382;28;20552;-48
2021/07/03 12:25:24;;;;;;;17.60;11.65;;;;;;;;;;5023092;28;20135;-52
2021/07/03 12:27:52;;;;;;;19.27;12.50;;;;;;;;;;5017381;28;20137;-47
2021/07/03 12:30:19;;;;;;;20.83;11.27;;;;;;;;;;5023696;28;20300;-49
2021/07/03 12:33:00;;;;;;;16.42;10.77;;;;;;;;;;5018407;28;20500;-50
2021/07/03 12:35:37;;;;;;;15.88;11.15;;;;;;;;;;5000120;28;20107;-50
2021/07/03 12:38:04;;;;;;;14.00;10.20;;;;;;;;;;5005554;28;20049;-50
2021/07/03 12:40:31;;;;;;;15.53;9.80;;;;;;;;;;5021645;28;20144;-48
2021/07/03 12:42:58;;;;;;;;;;;;;;;;;;5015608;28;20057;-49
2021/07/03 12:45:24;;;;;;;15.35;10.13;;;;;;;;;;5019031;28;20037;-49
2021/07/03 12:48:01;;;;;;;16.38;10.93;;;;;;;;;;5020824;28;20131;-49
2021/07/03 12:50:28;;;;;;;15.05;9.88;;;;;;;;;;5008712;28;20060;-51
2021/07/03 12:53:02;;;;;;;19.00;12.18;;;;;;;;;;5007298;28;20041;-49
2021/07/03 12:55:36;;;;;;;19.13;11.32;;;;;;;;;;5018868;28;20136;-48
2021/07/03 12:58:02;;;;;;;14.70;11.48;;;;;;;;;;5005621;28;20566;-50
2021/07/03 13:00:29;;;;;;;16.33;11.18;;;;;;;;;;5008416;28;20152;-48
2021/07/03 13:02:55;;;;;;;18.60;11.38;;;;;;;;;;5003123;28;20153;-49
2021/07/03 13:05:22;;;;;;;16.55;11.40;;;;;;;;;;5002501;28;20516;-49
2021/07/03 13:07:48;;;;;;;16.23;11.43;;;;;;;;;;5012492;28;20049;-49
2021/07/03 13:10:15;;;;;;;18.00;11.95;;;;;;;;;;5010110;28;20148;-49
2021/07/03 13:12:41;;;;;;;15.32;10.82;;;;;;;;;;5014896;28;20085;-48
2021/07/03 13:15:09;;;;;;;16.92;10.60;;;;;;;;;;5020993;28;20046;-50
2021/07/03 13:17:35;;;;;;;17.25;11.27;;;;;;;;;;5013700;28;20092;-50
2021/07/03 13:20:02;;;;;;;18.42;10.48;;;;;;;;;;5017667;28;20157;-50
2021/07/03 13:22:29;;;;;;;;;;;;;;;;;;5008593;28;20072;-49
2021/07/03 13:24:55;;;;;;;17.23;10.13;;;;;;;;;;5003478;28;20012;-50
2021/07/03 13:27:22;;;;;;;18.65;11.85;;;;;;;;;;5002808;28;20652;-49
2021/07/03 13:29:48;;;;;;;16.08;11.23;;;;;;;;;;4997600;28;20165;-48
2021/07/03 13:32:14;;;;;;;17.00;11.43;;;;;;;;;;4998746;28;20121;-50
2021/07/03 13:34:43;;;;;;;;;;;;;;;;;;5006420;28;20061;-48
2021/07/03 13:37:10;;;;;;;17.92;12.63;;;;;;;;;;5008405;28;20008;-51
2021/07/03 13:39:36;;;;;;;19.38;12.98;;;;;;;;;;5015297;28;20136;-53
2021/07/03 13:42:03;;;;;;;22.15;13.98;;;;;;;;;;5013302;28;20137;-49
2021/07/03 13:44:29;;;;;;;23.33;13.07;;;;;;;;;;5008316;28;20494;-49
2021/07/03 13:46:55;;;;;;;19.23;12.95;;;;;;;;;;5001799;28;20168;-49
2021/07/03 13:49:22;;;;;;;19.55;13.45;;;;;;;;;;5021970;28;20100;-48
2021/07/03 13:51:48;;;;;;;17.98;13.00;;;;;;;;;;5016341;28;20077;-48
2021/07/03 13:54:14;;;;;;;20.70;13.35;;;;;;;;;;5007522;28;20064;-49
2021/07/03 13:56:41;;;;;;;18.58;13.02;;;;;;;;;;5010369;28;20157;-51
2021/07/03 13:59:07;;;;;;;20.95;12.35;;;;;;;;;;4999183;28;20141;-50
2021/07/03 14:01:34;;;;;;;16.77;11.40;;;;;;;;;;5017292;28;20115;-50
2021/07/03 14:04:03;;;;;;;17.05;9.82;;;;;;;;;;5017014;28;20058;-48
2021/07/03 14:06:31;;;;;;;13.63;9.63;;;;;;;;;;5010175;28;20081;-49
2021/07/03 14:09:00;;;;;;;12.82;9.75;;;;;;;;;;5008401;28;20060;-48
2021/07/03 14:11:26;;;;;;;13.82;9.00;;;;;;;;;;5002762;28;20097;-48
2021/07/03 14:13:52;;;;;;;11.73;8.60;;;;;;;;;;4994415;28;20129;-49
2021/07/03 14:16:19;;;;;;;17.67;9.93;;;;;;;;;;5012067;28;20423;-49
2021/07/03 14:18:45;;;;;;;18.08;10.20;;;;;;;;;;5016725;28;20115;-48